createdAt,value
2024-01-18T00:01:03.439Z,17.77
2024-01-18T00:03:43.456Z,19.05
2024-01-18T00:06:12.286Z,17.10
2024-01-18T00:08:40.641Z,17.15
2024-01-18T00:11:09.187Z,17.50
2024-01-18T00:13:37.379Z,14.80
2024-01-18T00:16:05.900Z,14.52
2024-01-18T00:18:34.240Z,13.60
2024-01-18T00:21:02.841Z,14.45
2024-01-18T00:23:31.200Z,14.55
2024-01-18T00:25:59.775Z,14.48
2024-01-18T00:28:27.964Z,16.27
2024-01-18T00:30:56.630Z,12.43
2024-01-18T00:33:27.107Z,12.82
2024-01-18T00:35:56.289Z,15.82
2024-01-18T00:38:24.652Z,15.65
2024-01-18T00:40:53.242Z,15.35
2024-01-18T00:43:21.575Z,13.50
2024-01-18T00:45:50.152Z,12.07
2024-01-18T00:48:18.414Z,13.65
2024-01-18T00:50:47.036Z,15.50
2024-01-18T00:53:15.217Z,12.02
2024-01-18T00:55:43.764Z,12.55
2024-01-18T00:58:12.074Z,11.23
2024-01-18T01:00:40.813Z,11.90
2024-01-18T01:03:09.082Z,14.25
2024-01-18T01:05:37.580Z,12.65
2024-01-18T01:08:05.821Z,12.80
2024-01-18T01:10:34.289Z,15.82
2024-01-18T01:13:02.533Z,14.60
2024-01-18T01:15:31.314Z,16.33
2024-01-18T01:17:59.591Z,15.48
2024-01-18T01:20:28.166Z,14.13
2024-01-18T01:22:56.303Z,17.70
2024-01-18T01:25:24.841Z,16.13
2024-01-18T01:27:52.967Z,15.98
2024-01-18T01:30:21.812Z,17.25
2024-01-18T01:32:49.895Z,14.02
2024-01-18T01:35:18.516Z,11.50
2024-01-18T01:37:46.961Z,11.88
2024-01-18T01:40:15.608Z,11.35
2024-01-18T01:42:43.713Z,10.05
2024-01-18T01:45:12.335Z,11.18
2024-01-18T01:47:41.043Z,9.38
2024-01-18T01:50:10.376Z,8.40
2024-01-18T01:52:40.557Z,11.73
2024-01-18T01:55:12.937Z,10.20
2024-01-18T01:57:46.885Z,9.63
2024-01-18T02:00:17.218Z,8.07
2024-01-18T02:02:46.466Z,7.88
2024-01-18T02:05:15.806Z,5.43
2024-01-18T02:07:44.024Z,6.97
2024-01-18T02:10:13.306Z,6.53
2024-01-18T02:12:42.484Z,4.90
2024-01-18T02:15:11.560Z,4.78
2024-01-18T02:17:39.807Z,9.73
2024-01-18T02:20:09.233Z,5.70
2024-01-18T02:22:46.554Z,6.40
2024-01-18T02:25:19.539Z,6.65
2024-01-18T02:27:47.805Z,5.95
2024-01-18T02:30:16.483Z,5.13
2024-01-18T02:32:44.725Z,6.18
2024-01-18T02:35:13.532Z,4.72
2024-01-18T02:37:41.902Z,6.15
2024-01-18T02:40:11.006Z,5.55
2024-01-18T02:42:39.481Z,6.03
2024-01-18T02:45:08.556Z,5.00
2024-01-18T02:47:37.197Z,6.50
2024-01-18T02:50:06.494Z,5.50
2024-01-18T02:52:35.454Z,4.60
2024-01-18T02:55:04.018Z,5.38
2024-01-18T02:57:32.166Z,4.05
2024-01-18T03:00:00.739Z,4.50
2024-01-18T03:02:29.128Z,4.82
2024-01-18T03:04:57.646Z,5.38
2024-01-18T03:07:25.910Z,5.18
2024-01-18T03:09:54.416Z,4.90
2024-01-18T03:12:22.538Z,4.53
2024-01-18T03:14:50.905Z,5.25
2024-01-18T03:17:18.975Z,5.38
2024-01-18T03:19:47.647Z,5.10
2024-01-18T03:22:15.985Z,4.70
2024-01-18T03:24:44.511Z,6.65
2024-01-18T03:27:12.681Z,4.22
2024-01-18T03:29:41.263Z,5.38
2024-01-18T03:32:09.376Z,13.88
2024-01-18T03:34:37.951Z,4.72
2024-01-18T03:37:06.319Z,4.68
2024-01-18T03:39:38.160Z,3.85
2024-01-18T03:42:06.541Z,5.32
2024-01-18T03:44:35.849Z,5.75
2024-01-18T03:47:04.196Z,4.93
2024-01-18T03:49:32.586Z,3.60
2024-01-18T03:52:00.658Z,5.60
2024-01-18T03:54:29.311Z,4.75
2024-01-18T03:56:58.032Z,4.20
2024-01-18T03:59:26.526Z,3.42
2024-01-18T04:01:54.626Z,4.30
2024-01-18T04:04:23.528Z,4.85
2024-01-18T04:06:51.775Z,4.10
2024-01-18T04:09:20.127Z,4.25
2024-01-18T04:11:48.335Z,4.10
2024-01-18T04:14:16.836Z,3.92
2024-01-18T04:16:45.327Z,4.30
2024-01-18T04:19:13.909Z,5.57
2024-01-18T04:21:42.191Z,5.65
2024-01-18T04:24:11.822Z,6.82
2024-01-18T04:26:40.773Z,4.93
2024-01-18T04:29:09.212Z,5.07
2024-01-18T04:31:37.283Z,11.13
2024-01-18T04:34:05.662Z,4.22
2024-01-18T04:36:33.718Z,6.05
2024-01-18T04:39:02.316Z,5.70
2024-01-18T04:41:30.457Z,4.32
2024-01-18T04:43:59.364Z,3.97
2024-01-18T04:46:27.511Z,6.32
2024-01-18T04:48:55.938Z,4.68
2024-01-18T04:51:24.453Z,7.63
2024-01-18T04:53:52.946Z,5.50
2024-01-18T04:56:21.357Z,5.70
2024-01-18T04:58:50.353Z,5.80
2024-01-18T05:01:19.236Z,6.47
2024-01-18T05:03:47.937Z,9.45
2024-01-18T05:06:16.384Z,8.73
2024-01-18T06:22:40.045Z,10.05
2024-01-18T06:25:08.632Z,11.82
2024-01-18T06:27:36.902Z,10.80
2024-01-18T06:30:12.043Z,10.27
2024-01-18T06:32:40.640Z,11.27
2024-01-18T06:35:09.077Z,9.35
2024-01-18T06:37:38.323Z,12.32
2024-01-18T06:40:08.948Z,14.23
2024-01-18T06:42:36.965Z,14.30
2024-01-18T06:45:05.991Z,12.85
2024-01-18T06:47:34.729Z,15.93
2024-01-18T06:50:03.297Z,12.02
2024-01-18T06:52:31.493Z,11.90
2024-01-18T06:54:59.868Z,16.00
2024-01-18T06:57:27.947Z,15.70
2024-01-18T06:59:57.720Z,13.95
2024-01-18T07:02:25.934Z,10.30
2024-01-18T07:04:54.834Z,12.05
2024-01-18T07:07:24.611Z,13.82
2024-01-18T07:09:53.200Z,11.88
2024-01-18T07:12:23.459Z,12.65
2024-01-18T07:14:53.598Z,12.48
2024-01-18T07:17:22.099Z,11.10
2024-01-18T07:19:50.762Z,14.60
2024-01-18T07:22:18.961Z,13.75
2024-01-18T07:24:47.342Z,13.00
2024-01-18T07:27:15.506Z,15.18
2024-01-18T07:29:44.073Z,15.77
2024-01-18T07:32:12.232Z,12.02
2024-01-18T07:34:40.635Z,12.30
2024-01-18T07:37:10.823Z,20.80
2024-01-18T07:39:39.694Z,13.05
2024-01-18T07:42:09.320Z,15.60
2024-01-18T07:44:41.111Z,14.80
2024-01-18T07:47:11.490Z,12.82
2024-01-18T07:49:50.024Z,13.90
2024-01-18T07:52:19.881Z,17.27
2024-01-18T07:54:51.225Z,11.38
2024-01-18T07:57:22.317Z,18.85
2024-01-18T07:59:50.792Z,17.48
2024-01-18T08:02:18.887Z,13.38
2024-01-18T08:04:47.423Z,12.57
2024-01-18T08:07:16.778Z,11.85
2024-01-18T08:09:45.673Z,18.70
2024-01-18T08:12:13.852Z,24.40
2024-01-18T08:14:43.456Z,18.30
2024-01-18T08:17:11.524Z,20.75
2024-01-18T08:19:43.408Z,18.23
2024-01-18T08:22:13.541Z,22.63
2024-01-18T08:24:43.309Z,17.20
2024-01-18T08:27:13.438Z,15.60
2024-01-18T08:29:42.073Z,17.90
2024-01-18T08:32:10.159Z,24.20
2024-01-18T08:34:38.490Z,20.30
2024-01-18T08:37:06.958Z,15.23
2024-01-18T08:39:35.602Z,19.77
2024-01-18T08:42:04.341Z,20.77
2024-01-18T08:44:33.188Z,19.13
2024-01-18T08:47:01.168Z,16.73
2024-01-18T08:49:30.270Z,19.63
2024-01-18T08:51:58.378Z,18.35
2024-01-18T08:54:26.938Z,19.60
2024-01-18T08:56:54.935Z,15.60
2024-01-18T08:59:24.721Z,13.07
2024-01-18T09:01:53.000Z,17.17
2024-01-18T09:04:21.493Z,17.40
2024-01-18T09:06:49.435Z,16.00
2024-01-18T09:09:17.887Z,14.13
2024-01-18T09:11:45.831Z,22.10
2024-01-18T09:14:14.230Z,17.23
2024-01-18T09:16:42.161Z,15.07
2024-01-18T09:19:14.810Z,16.27
2024-01-18T09:21:46.706Z,13.95
2024-01-18T09:24:15.529Z,14.93
2024-01-18T09:26:44.093Z,19.27
2024-01-18T09:29:12.861Z,16.85
2024-01-18T09:31:42.967Z,19.05
2024-01-18T09:34:12.308Z,18.85
2024-01-18T09:36:40.439Z,20.38
2024-01-18T09:39:10.723Z,18.83
2024-01-18T09:41:38.915Z,22.27
2024-01-18T09:44:10.588Z,24.63
2024-01-18T09:46:39.883Z,32.72
2024-01-18T09:49:10.998Z,33.30
2024-01-18T09:51:39.082Z,24.42
2024-01-18T09:54:08.561Z,30.08
2024-01-18T09:56:45.110Z,25.70
2024-01-18T09:59:19.762Z,25.33
2024-01-18T10:01:48.591Z,26.00
2024-01-18T10:04:19.811Z,27.63
2024-01-18T10:06:47.998Z,29.85
2024-01-18T10:09:17.344Z,24.60
2024-01-18T10:11:47.560Z,23.95
2024-01-18T10:14:16.730Z,26.27
2024-01-18T10:16:44.775Z,25.30
2024-01-18T10:19:16.678Z,24.25
2024-01-18T10:21:46.236Z,27.42
2024-01-18T10:24:16.055Z,28.95
2024-01-18T10:26:44.355Z,20.30
2024-01-18T10:29:12.727Z,18.75
2024-01-18T10:31:43.757Z,19.42
2024-01-18T10:34:12.910Z,18.08
2024-01-18T10:36:41.091Z,18.33
2024-01-18T10:39:17.351Z,17.73
2024-01-18T10:41:47.285Z,16.30
2024-01-18T10:44:17.228Z,17.25
2024-01-18T10:46:46.957Z,22.90
2024-01-18T10:49:15.595Z,17.60
2024-01-18T10:51:44.149Z,19.67
2024-01-18T10:54:25.285Z,17.33
2024-01-18T10:57:01.458Z,22.30
2024-01-18T10:59:31.579Z,24.58
2024-01-18T11:02:01.695Z,16.42
2024-01-18T11:04:32.543Z,24.17
2024-01-18T11:07:01.269Z,21.52
2024-01-18T11:09:36.127Z,17.77
2024-01-18T11:12:06.799Z,21.85
2024-01-18T11:14:35.816Z,20.10
2024-01-18T11:17:17.049Z,17.77
2024-01-18T11:19:47.522Z,16.73
2024-01-18T11:22:27.471Z,30.02
2024-01-18T11:25:07.101Z,18.60
2024-01-18T11:27:40.135Z,19.08
2024-01-18T11:30:12.901Z,25.50
2024-01-18T11:32:42.011Z,22.17
2024-01-18T11:35:16.133Z,24.48
2024-01-18T11:37:44.373Z,23.00
2024-01-18T11:40:13.605Z,30.35
2024-01-18T11:42:46.612Z,23.33
2024-01-18T11:47:50.227Z,20.50
2024-01-18T11:50:18.969Z,25.75
2024-01-18T11:52:47.235Z,25.00
2024-01-18T11:55:17.989Z,23.52
2024-01-18T11:57:46.332Z,22.30
2024-01-18T12:00:18.333Z,24.30
2024-01-18T12:02:47.050Z,24.98
2024-01-18T12:05:17.654Z,22.65
2024-01-18T12:07:46.260Z,25.50
2024-01-18T12:10:15.867Z,23.38
2024-01-18T12:12:46.619Z,21.45
2024-01-18T12:15:22.656Z,20.63
2024-01-18T12:17:54.619Z,24.38
2024-01-18T12:20:23.093Z,26.77
2024-01-18T12:22:51.295Z,29.20
2024-01-18T12:25:19.898Z,29.02
2024-01-18T12:27:48.569Z,30.70
2024-01-18T12:30:17.207Z,28.75
2024-01-18T12:32:45.370Z,35.10
2024-01-18T12:35:13.868Z,32.13
2024-01-18T12:37:42.003Z,32.08
2024-01-18T12:40:12.330Z,29.92
2024-01-18T12:42:40.639Z,28.98
2024-01-18T12:45:09.546Z,27.50
2024-01-18T12:47:37.942Z,35.97
2024-01-18T12:50:12.010Z,32.67
2024-01-18T12:52:40.346Z,32.42
2024-01-18T12:55:09.281Z,32.95
2024-01-18T12:57:41.536Z,26.23
2024-01-18T13:00:12.648Z,34.90
2024-01-18T13:02:43.280Z,31.23
2024-01-18T13:05:18.924Z,26.00
2024-01-18T13:07:47.382Z,31.55
2024-01-18T13:10:15.821Z,36.42
2024-01-18T13:12:45.347Z,32.72
2024-01-18T13:15:15.777Z,37.88
2024-01-18T13:17:44.412Z,34.95
2024-01-18T13:20:13.647Z,36.78
2024-01-18T13:22:41.691Z,46.53
2024-01-18T13:25:10.258Z,39.45
2024-01-18T13:27:38.506Z,49.22
2024-01-18T13:30:08.837Z,45.85
2024-01-18T13:32:36.895Z,45.05
2024-01-18T13:35:05.947Z,51.13
2024-01-18T13:37:33.940Z,48.72
2024-01-18T13:40:03.141Z,53.00
2024-01-18T13:42:31.156Z,56.53
2024-01-18T13:44:59.214Z,57.67
2024-01-18T13:47:28.334Z,59.08
2024-01-18T13:49:56.357Z,56.13
2024-01-18T13:52:30.247Z,60.83
2024-01-18T13:54:58.366Z,57.92
2024-01-18T13:57:26.812Z,63.25
2024-01-18T13:59:54.825Z,63.10
2024-01-18T14:02:23.442Z,56.40
2024-01-18T14:04:51.434Z,56.92
2024-01-18T14:07:19.821Z,52.05
2024-01-18T14:09:47.890Z,63.70
2024-01-18T14:12:16.345Z,60.72
2024-01-18T14:14:44.322Z,53.08
2024-01-18T14:17:12.701Z,53.97
2024-01-18T14:19:40.786Z,57.78
2024-01-18T14:22:09.677Z,62.78
2024-01-18T14:24:37.809Z,54.08
2024-01-18T14:27:06.400Z,57.78
2024-01-18T14:29:34.580Z,57.33
2024-01-18T14:32:04.731Z,54.33
2024-01-18T14:34:34.075Z,61.63
2024-01-18T14:37:03.946Z,69.03
2024-01-18T14:39:35.065Z,60.50
2024-01-18T14:42:04.812Z,67.55
2024-01-18T14:44:40.851Z,66.55
2024-01-18T14:47:09.995Z,62.10
2024-01-18T14:49:38.479Z,64.95
2024-01-18T14:52:12.123Z,71.18
2024-01-18T14:54:40.883Z,65.55
2024-01-18T14:57:10.327Z,71.18
2024-01-18T14:59:38.353Z,69.95
2024-01-18T15:02:07.191Z,58.88
2024-01-18T15:04:35.325Z,58.42
2024-01-18T15:07:06.993Z,61.50
2024-01-18T15:09:35.968Z,64.43
2024-01-18T15:12:04.981Z,65.65
2024-01-18T15:14:33.229Z,58.40
2024-01-18T15:17:02.287Z,54.83
2024-01-18T15:19:30.375Z,49.13
2024-01-18T15:21:58.950Z,47.47
2024-01-18T15:24:27.042Z,53.05
2024-01-18T15:26:55.538Z,47.50
2024-01-18T15:29:23.672Z,39.15
2024-01-18T15:31:52.166Z,44.20
2024-01-18T15:34:20.253Z,44.17
2024-01-18T15:36:48.892Z,52.35
2024-01-18T15:39:17.013Z,41.45
2024-01-18T15:41:46.670Z,44.35
2024-01-18T15:44:15.282Z,53.15
2024-01-18T15:46:49.705Z,42.03
2024-01-18T15:49:18.038Z,42.25
2024-01-18T15:51:46.536Z,37.97
2024-01-18T15:54:14.582Z,43.00
2024-01-18T15:56:43.562Z,35.55
2024-01-18T15:59:11.713Z,36.90
2024-01-18T16:01:40.258Z,35.97
2024-01-18T16:04:10.828Z,34.53
2024-01-18T16:06:39.484Z,36.28
2024-01-18T16:09:08.181Z,39.00
2024-01-18T16:11:36.514Z,37.50
2024-01-18T16:14:04.657Z,37.05
2024-01-18T16:16:33.129Z,30.48
2024-01-18T16:19:01.359Z,35.45
2024-01-18T16:21:30.195Z,44.35
2024-01-18T16:24:02.328Z,33.28
2024-01-18T16:26:30.750Z,33.50
2024-01-18T16:28:58.769Z,36.33
2024-01-18T16:31:27.182Z,40.60
2024-01-18T16:33:55.323Z,32.22
2024-01-18T16:36:24.253Z,34.38
2024-01-18T16:38:52.288Z,35.53
2024-01-18T16:41:22.517Z,35.50
2024-01-18T16:43:51.179Z,42.67
2024-01-18T16:46:21.994Z,33.08
2024-01-18T16:48:51.627Z,31.35
2024-01-18T16:51:21.275Z,46.30
2024-01-18T16:53:49.463Z,38.72
2024-01-18T16:56:18.261Z,41.85
2024-01-18T16:58:46.485Z,35.80
2024-01-18T17:01:15.325Z,31.40
2024-01-18T17:03:43.346Z,34.13
2024-01-18T17:06:11.997Z,36.20
2024-01-18T17:08:40.531Z,37.67
2024-01-18T17:11:17.105Z,34.53
2024-01-18T17:13:49.521Z,41.05
2024-01-18T17:16:18.396Z,37.70
2024-01-18T17:18:46.852Z,41.10
2024-01-18T17:21:16.586Z,36.47
2024-01-18T17:23:44.642Z,36.05
2024-01-18T17:26:13.196Z,36.63
2024-01-18T17:28:41.406Z,36.42
2024-01-18T17:31:13.555Z,55.30
2024-01-18T17:33:41.862Z,37.08
2024-01-18T17:36:10.727Z,42.70
2024-01-18T17:38:38.803Z,36.63
2024-01-18T17:41:07.354Z,39.05
2024-01-18T17:43:36.162Z,37.67
2024-01-18T17:46:06.982Z,36.90
2024-01-18T17:48:37.619Z,40.90
2024-01-18T17:51:06.649Z,41.55
2024-01-18T17:53:35.112Z,34.03
2024-01-18T17:56:05.227Z,37.70
2024-01-18T17:58:33.395Z,34.45
2024-01-18T18:01:06.434Z,36.63
2024-01-18T18:03:37.986Z,42.35
2024-01-18T18:06:08.180Z,36.50
2024-01-18T18:08:37.373Z,40.67
2024-01-18T18:11:06.106Z,41.92
2024-01-18T18:13:35.683Z,36.60
2024-01-18T18:16:04.464Z,38.40
2024-01-18T18:18:32.847Z,37.55
2024-01-18T18:21:01.428Z,45.78
2024-01-18T18:23:29.436Z,50.25
2024-01-18T18:25:58.813Z,48.45
2024-01-18T18:28:30.648Z,37.20
2024-01-18T18:30:59.144Z,40.58
2024-01-18T18:33:27.748Z,37.13
2024-01-18T18:35:56.376Z,41.83
2024-01-18T18:38:30.275Z,46.08
2024-01-18T18:41:02.235Z,46.88
2024-01-18T18:43:31.155Z,46.47
2024-01-18T18:46:00.255Z,43.58
2024-01-18T18:48:31.032Z,41.42
2024-01-18T18:51:00.691Z,43.80
2024-01-18T18:53:29.028Z,39.22
2024-01-18T18:55:57.962Z,38.03
2024-01-18T18:58:26.520Z,51.42
2024-01-18T19:00:54.804Z,38.80
2024-01-18T19:03:23.015Z,37.97
2024-01-18T19:05:52.786Z,37.70
2024-01-18T19:08:21.148Z,41.10
2024-01-18T19:10:51.644Z,38.47
2024-01-18T19:13:21.190Z,40.97
2024-01-18T19:15:49.526Z,47.97
2024-01-18T19:18:17.730Z,39.22
2024-01-18T19:20:46.338Z,45.47
2024-01-18T19:23:14.253Z,41.10
2024-01-18T19:25:42.762Z,45.58
2024-01-18T19:28:11.767Z,49.67
2024-01-18T19:30:40.218Z,45.90
2024-01-18T19:33:08.276Z,48.35
2024-01-18T19:35:37.046Z,42.05
2024-01-18T19:38:05.422Z,47.97
2024-01-18T19:40:33.877Z,45.17
2024-01-18T19:43:02.088Z,46.83
2024-01-18T19:45:30.401Z,53.33
2024-01-18T19:47:58.737Z,51.65
2024-01-18T19:50:27.708Z,51.40
2024-01-18T19:52:56.758Z,45.03
2024-01-18T19:55:25.514Z,55.20
2024-01-18T19:57:54.171Z,55.25
2024-01-18T20:00:23.425Z,53.83
2024-01-18T20:02:55.788Z,51.88
2024-01-18T20:05:24.798Z,48.47
2024-01-18T20:07:53.176Z,45.38
2024-01-18T20:10:22.900Z,52.33
2024-01-18T20:12:51.040Z,56.20
2024-01-18T20:15:19.464Z,49.05
2024-01-18T20:17:50.130Z,55.35
2024-01-18T20:20:19.757Z,48.55
2024-01-18T20:22:49.189Z,47.17
2024-01-18T20:25:18.050Z,51.78
2024-01-18T20:27:46.215Z,54.40
2024-01-18T20:30:14.857Z,56.95
2024-01-18T20:32:45.778Z,53.20
2024-01-18T20:35:15.016Z,48.72
2024-01-18T20:37:43.464Z,52.95
2024-01-18T20:40:12.126Z,57.67
2024-01-18T20:42:40.266Z,45.75
2024-01-18T20:45:09.459Z,59.65
2024-01-18T20:47:37.534Z,59.30
2024-01-18T20:50:06.805Z,53.72
2024-01-18T20:52:34.782Z,53.75
2024-01-18T20:55:03.137Z,55.95
2024-01-18T20:57:31.309Z,59.40
2024-01-18T20:59:59.741Z,57.72
2024-01-18T21:02:28.157Z,50.25
2024-01-18T21:04:56.803Z,47.30
2024-01-18T21:07:24.794Z,49.30
2024-01-18T21:09:53.651Z,57.17
2024-01-18T21:12:21.600Z,53.50
2024-01-18T21:14:50.289Z,55.78
2024-01-18T21:17:19.558Z,50.53
2024-01-18T21:19:48.188Z,45.15
2024-01-18T21:22:16.278Z,58.05
2024-01-18T21:24:44.847Z,48.78
2024-01-18T21:27:13.171Z,54.15
2024-01-18T21:29:41.723Z,58.15
2024-01-18T21:32:10.010Z,57.65
2024-01-18T21:34:38.520Z,55.28
2024-01-18T21:37:06.798Z,56.78
2024-01-18T21:39:35.418Z,63.90
2024-01-18T21:42:04.150Z,51.15
2024-01-18T21:44:37.079Z,53.15
2024-01-18T21:47:05.364Z,57.20
2024-01-18T21:49:35.338Z,50.63
2024-01-18T21:52:05.229Z,50.50
2024-01-18T21:54:33.502Z,53.10
2024-01-18T21:57:01.814Z,46.53
2024-01-18T21:59:39.105Z,51.17
2024-01-18T22:02:12.622Z,52.83
2024-01-18T22:04:41.686Z,40.30
2024-01-18T22:07:10.233Z,46.88
2024-01-18T22:09:42.390Z,53.60
2024-01-18T22:12:12.327Z,40.13
2024-01-18T22:14:41.412Z,41.22
2024-01-18T22:17:10.925Z,45.20
2024-01-18T22:19:47.030Z,40.78
2024-01-18T22:22:23.597Z,47.83
2024-01-18T22:24:52.071Z,47.33
2024-01-18T22:27:20.128Z,45.83
2024-01-18T22:29:48.598Z,44.10
2024-01-18T22:32:17.824Z,45.17
2024-01-18T22:34:48.671Z,49.03
2024-01-18T22:37:17.992Z,43.92
2024-01-18T22:39:46.559Z,44.63
2024-01-18T22:42:14.823Z,38.30
2024-01-18T22:44:43.461Z,47.03
2024-01-18T22:47:12.163Z,43.80
2024-01-18T22:49:40.861Z,42.45
2024-01-18T22:52:08.909Z,52.35
2024-01-18T22:54:37.291Z,41.92
2024-01-18T22:57:05.688Z,46.50
2024-01-18T22:59:34.669Z,41.67
2024-01-18T23:02:02.850Z,54.55
2024-01-18T23:04:31.227Z,44.63
2024-01-18T23:06:59.626Z,55.17
2024-01-18T23:09:28.111Z,46.88
2024-01-18T23:11:57.144Z,44.65
2024-01-18T23:14:25.628Z,45.75
2024-01-18T23:16:53.791Z,48.63
2024-01-18T23:19:22.315Z,46.20
2024-01-18T23:21:50.442Z,46.05
2024-01-18T23:24:18.822Z,56.47
2024-01-18T23:26:47.451Z,41.42
2024-01-18T23:29:15.943Z,48.13
2024-01-18T23:31:44.065Z,54.28
2024-01-18T23:34:13.053Z,55.10
2024-01-18T23:36:41.212Z,55.65
2024-01-18T23:39:09.669Z,49.88
2024-01-18T23:41:38.982Z,54.25
2024-01-18T23:44:13.660Z,51.88
2024-01-18T23:46:45.012Z,55.72
2024-01-18T23:49:14.516Z,61.05
2024-01-18T23:51:42.617Z,61.60
2024-01-18T23:54:11.106Z,61.33
2024-01-18T23:56:39.209Z,52.20
2024-01-18T23:59:07.731Z,55.65
